sensor_id;sensor_type;location;lat;lon;timestamp;pressure;altitude;pressure_sealevel;temperature;humidity
21594;BME280;10959;51.328;7.322;2023-04-23T00:01:23;73511.88;;;-147.06;54.85
21594;BME280;10959;51.328;7.322;2023-04-23T00:03:54;73507.78;;;-147.06;54.70
21594;BME280;10959;51.328;7.322;2023-04-23T00:06:21;73511.88;;;-147.06;54.83
21594;BME280;10959;51.328;7.322;2023-04-23T00:08:52;73511.88;;;-147.06;54.73
21594;BME280;10959;51.328;7.322;2023-04-23T00:11:19;73511.88;;;-147.06;54.93
21594;BME280;10959;51.328;7.322;2023-04-23T00:13:46;73511.88;;;-147.06;54.88
21594;BME280;10959;51.328;7.322;2023-04-23T00:16:14;73507.78;;;-147.06;54.87
21594;BME280;10959;51.328;7.322;2023-04-23T00:18:41;73511.88;;;-147.06;55.01
21594;BME280;10959;51.328;7.322;2023-04-23T00:21:07;73515.97;;;-147.06;54.94
21594;BME280;10959;51.328;7.322;2023-04-23T00:23:34;73511.88;;;-147.06;54.89
21594;BME280;10959;51.328;7.322;2023-04-23T00:26:01;73507.78;;;-147.06;54.85
21594;BME280;10959;51.328;7.322;2023-04-23T00:28:28;73513.94;;;-147.06;54.86
21594;BME280;10959;51.328;7.322;2023-04-23T00:30:54;73515.97;;;-147.06;54.75
21594;BME280;10959;51.328;7.322;2023-04-23T00:33:21;73515.97;;;-147.06;54.91
21594;BME280;10959;51.328;7.322;2023-04-23T00:35:47;73520.06;;;-147.06;54.82
21594;BME280;10959;51.328;7.322;2023-04-23T00:38:14;73522.13;;;-147.06;54.68
21594;BME280;10959;51.328;7.322;2023-04-23T00:40:40;73524.16;;;-147.06;54.78
21594;BME280;10959;51.328;7.322;2023-04-23T00:43:08;73522.13;;;-147.06;54.93
21594;BME280;10959;51.328;7.322;2023-04-23T00:45:35;73528.25;;;-147.06;55.05
21594;BME280;10959;51.328;7.322;2023-04-23T00:48:02;73528.25;;;-147.06;55.05
21594;BME280;10959;51.328;7.322;2023-04-23T00:50:29;73524.16;;;-147.06;55.03
21594;BME280;10959;51.328;7.322;2023-04-23T00:52:55;73532.38;;;-147.06;54.96
21594;BME280;10959;51.328;7.322;2023-04-23T00:55:21;73536.47;;;-147.06;55.04
21594;BME280;10959;51.328;7.322;2023-04-23T00:57:49;73524.16;;;-147.06;55.03
21594;BME280;10959;51.328;7.322;2023-04-23T01:00:17;73536.47;;;-147.06;54.98
21594;BME280;10959;51.328;7.322;2023-04-23T01:02:45;73532.38;;;-147.06;55.06
21594;BME280;10959;51.328;7.322;2023-04-23T01:05:13;73536.47;;;-147.06;54.90
21594;BME280;10959;51.328;7.322;2023-04-23T01:07:42;73540.56;;;-147.06;55.04
21594;BME280;10959;51.328;7.322;2023-04-23T01:10:10;73544.66;;;-147.06;55.00
21594;BME280;10959;51.328;7.322;2023-04-23T01:12:36;73544.66;;;-147.06;55.04
21594;BME280;10959;51.328;7.322;2023-04-23T01:15:04;73544.66;;;-147.06;55.05
21594;BME280;10959;51.328;7.322;2023-04-23T01:17:32;73544.66;;;-147.06;55.02
21594;BME280;10959;51.328;7.322;2023-04-23T01:19:59;73540.56;;;-147.06;55.11
21594;BME280;10959;51.328;7.322;2023-04-23T01:22:27;73542.59;;;-147.06;55.08
21594;BME280;10959;51.328;7.322;2023-04-23T01:24:53;73548.75;;;-147.06;55.09
21594;BME280;10959;51.328;7.322;2023-04-23T01:27:20;73556.94;;;-147.06;55.14
21594;BME280;10959;51.328;7.322;2023-04-23T01:29:49;73556.94;;;-147.06;55.08
21594;BME280;10959;51.328;7.322;2023-04-23T01:32:16;73561.03;;;-147.06;55.13
21594;BME280;10959;51.328;7.322;2023-04-23T01:34:43;73559.00;;;-147.06;55.08
21594;BME280;10959;51.328;7.322;2023-04-23T01:37:10;73561.03;;;-147.06;55.08
21594;BME280;10959;51.328;7.322;2023-04-23T01:39:38;73556.94;;;-147.06;55.14
21594;BME280;10959;51.328;7.322;2023-04-23T01:42:05;73561.03;;;-147.06;55.06
21594;BME280;10959;51.328;7.322;2023-04-23T01:44:32;73561.03;;;-147.06;55.19
21594;BME280;10959;51.328;7.322;2023-04-23T01:46:59;73567.19;;;-147.06;54.92
21594;BME280;10959;51.328;7.322;2023-04-23T01:49:25;73561.03;;;-147.06;55.26
21594;BME280;10959;51.328;7.322;2023-04-23T01:51:52;73569.22;;;-147.06;55.21
21594;BME280;10959;51.328;7.322;2023-04-23T01:54:18;73569.22;;;-147.06;55.24
21594;BME280;10959;51.328;7.322;2023-04-23T01:56:46;73569.22;;;-147.06;55.26
21594;BME280;10959;51.328;7.322;2023-04-23T01:59:12;73569.22;;;-147.06;55.33
21594;BME280;10959;51.328;7.322;2023-04-23T02:01:43;73581.53;;;-147.06;55.24
21594;BME280;10959;51.328;7.322;2023-04-23T02:04:11;73573.31;;;-147.06;55.31
21594;BME280;10959;51.328;7.322;2023-04-23T02:06:38;73577.44;;;-147.06;55.42
21594;BME280;10959;51.328;7.322;2023-04-23T02:09:04;73581.53;;;-147.06;55.33
21594;BME280;10959;51.328;7.322;2023-04-23T02:11:31;73585.63;;;-147.06;55.29
21594;BME280;10959;51.328;7.322;2023-04-23T02:13:59;73593.81;;;-147.06;55.28
21594;BME280;10959;51.328;7.322;2023-04-23T02:16:26;73585.63;;;-147.06;55.46
21594;BME280;10959;51.328;7.322;2023-04-23T02:18:52;73589.72;;;-147.06;55.45
21594;BME280;10959;51.328;7.322;2023-04-23T02:21:19;73597.91;;;-147.06;55.38
21594;BME280;10959;51.328;7.322;2023-04-23T02:23:45;73599.97;;;-147.06;55.38
21594;BME280;10959;51.328;7.322;2023-04-23T02:26:12;73604.06;;;-147.06;55.40
21594;BME280;10959;51.328;7.322;2023-04-23T02:28:38;73597.91;;;-147.06;55.54
21594;BME280;10959;51.328;7.322;2023-04-23T02:31:06;73606.09;;;-147.06;55.47
21594;BME280;10959;51.328;7.322;2023-04-23T02:33:32;73606.09;;;-147.06;55.50
21594;BME280;10959;51.328;7.322;2023-04-23T02:35:59;73610.19;;;-147.06;55.53
21594;BME280;10959;51.328;7.322;2023-04-23T02:38:25;73606.09;;;-147.06;55.44
21594;BME280;10959;51.328;7.322;2023-04-23T02:40:52;73606.09;;;-147.06;55.33
21594;BME280;10959;51.328;7.322;2023-04-23T02:43:18;73602.00;;;-147.06;55.47
21594;BME280;10959;51.328;7.322;2023-04-23T02:45:45;73610.19;;;-147.06;55.35
21594;BME280;10959;51.328;7.322;2023-04-23T02:48:12;73614.28;;;-147.06;55.44
21594;BME280;10959;51.328;7.322;2023-04-23T02:50:39;73622.50;;;-147.06;55.57
21594;BME280;10959;51.328;7.322;2023-04-23T02:53:06;73614.28;;;-147.06;55.60
21594;BME280;10959;51.328;7.322;2023-04-23T02:55:32;73620.44;;;-147.06;55.56
21594;BME280;10959;51.328;7.322;2023-04-23T02:57:59;73626.59;;;-147.06;55.58
21594;BME280;10959;51.328;7.322;2023-04-23T03:00:26;73622.50;;;-147.06;55.58
21594;BME280;10959;51.328;7.322;2023-04-23T03:02:53;73630.69;;;-147.06;55.57
21594;BME280;10959;51.328;7.322;2023-04-23T03:05:21;73638.88;;;-147.06;55.68
21594;BME280;10959;51.328;7.322;2023-04-23T03:07:47;73647.06;;;-147.06;55.77
21594;BME280;10959;51.328;7.322;2023-04-23T03:10:14;73651.16;;;-147.06;55.75
21594;BME280;10959;51.328;7.322;2023-04-23T03:12:40;73647.06;;;-147.06;55.71
21594;BME280;10959;51.328;7.322;2023-04-23T03:15:07;73642.97;;;-147.06;55.65
21594;BME280;10959;51.328;7.322;2023-04-23T03:17:34;73642.97;;;-147.06;55.63
21594;BME280;10959;51.328;7.322;2023-04-23T03:20:02;73651.16;;;-147.06;55.80
21594;BME280;10959;51.328;7.322;2023-04-23T03:22:30;73647.06;;;-147.06;55.72
21594;BME280;10959;51.328;7.322;2023-04-23T03:24:57;73651.16;;;-147.06;55.79
21594;BME280;10959;51.328;7.322;2023-04-23T03:27:23;73649.13;;;-147.06;55.74
21594;BME280;10959;51.328;7.322;2023-04-23T03:29:50;73647.06;;;-147.06;55.86
21594;BME280;10959;51.328;7.322;2023-04-23T03:32:16;73642.97;;;-147.06;55.76
21594;BME280;10959;51.328;7.322;2023-04-23T03:34:43;73638.88;;;-147.06;55.74
21594;BME280;10959;51.328;7.322;2023-04-23T03:37:09;73647.06;;;-147.06;55.88
21594;BME280;10959;51.328;7.322;2023-04-23T03:39:37;73642.97;;;-147.06;55.93
21594;BME280;10959;51.328;7.322;2023-04-23T03:42:03;73651.16;;;-147.06;56.01
21594;BME280;10959;51.328;7.322;2023-04-23T03:44:30;73655.25;;;-147.06;56.09
21594;BME280;10959;51.328;7.322;2023-04-23T03:46:56;73651.16;;;-147.06;56.24
21594;BME280;10959;51.328;7.322;2023-04-23T03:49:25;73655.25;;;-147.06;56.16
21594;BME280;10959;51.328;7.322;2023-04-23T03:51:51;73657.31;;;-147.06;56.15
21594;BME280;10959;51.328;7.322;2023-04-23T03:54:18;73655.25;;;-147.06;56.21
21594;BME280;10959;51.328;7.322;2023-04-23T03:56:46;73653.22;;;-147.06;55.95
21594;BME280;10959;51.328;7.322;2023-04-23T03:59:12;73649.13;;;-147.06;56.24
21594;BME280;10959;51.328;7.322;2023-04-23T04:01:39;73642.97;;;-147.06;56.33
21594;BME280;10959;51.328;7.322;2023-04-23T04:04:05;73642.97;;;-147.06;56.38
21594;BME280;10959;51.328;7.322;2023-04-23T04:06:32;73638.88;;;-147.06;56.41
21594;BME280;10959;51.328;7.322;2023-04-23T04:08:58;73642.97;;;-147.06;56.43
21594;BME280;10959;51.328;7.322;2023-04-23T04:11:25;73638.88;;;-147.06;56.46
21594;BME280;10959;51.328;7.322;2023-04-23T04:13:52;73638.88;;;-147.06;56.60
21594;BME280;10959;51.328;7.322;2023-04-23T04:16:19;73634.78;;;-147.06;56.74
21594;BME280;10959;51.328;7.322;2023-04-23T04:18:45;73630.69;;;-147.06;56.73
21594;BME280;10959;51.328;7.322;2023-04-23T04:21:12;73634.78;;;-147.06;56.82
21594;BME280;10959;51.328;7.322;2023-04-23T04:23:38;73638.88;;;-147.06;57.03
21594;BME280;10959;51.328;7.322;2023-04-23T04:26:05;73636.81;;;-147.06;56.98
21594;BME280;10959;51.328;7.322;2023-04-23T04:28:32;73634.78;;;-147.06;57.08
21594;BME280;10959;51.328;7.322;2023-04-23T04:31:01;73630.69;;;-147.06;56.92
21594;BME280;10959;51.328;7.322;2023-04-23T04:33:29;73626.59;;;-147.06;56.99
21594;BME280;10959;51.328;7.322;2023-04-23T04:35:57;73638.88;;;-147.06;56.98
21594;BME280;10959;51.328;7.322;2023-04-23T04:38:24;73645.03;;;-147.06;57.01
21594;BME280;10959;51.328;7.322;2023-04-23T04:40:53;73647.06;;;-147.06;56.87
21594;BME280;10959;51.328;7.322;2023-04-23T04:43:23;73642.97;;;-147.06;56.84
21594;BME280;10959;51.328;7.322;2023-04-23T04:45:49;73645.03;;;-147.06;56.87
21594;BME280;10959;51.328;7.322;2023-04-23T04:48:17;73645.03;;;-147.06;56.95
21594;BME280;10959;51.328;7.322;2023-04-23T04:50:43;73651.16;;;-147.06;56.79
21594;BME280;10959;51.328;7.322;2023-04-23T04:53:10;73647.06;;;-147.06;56.77
21594;BME280;10959;51.328;7.322;2023-04-23T04:55:37;73651.16;;;-147.06;56.67
21594;BME280;10959;51.328;7.322;2023-04-23T04:58:03;73651.16;;;-147.06;56.65
21594;BME280;10959;51.328;7.322;2023-04-23T05:00:30;73653.22;;;-147.06;56.71
21594;BME280;10959;51.328;7.322;2023-04-23T05:02:57;73653.22;;;-147.06;56.53
21594;BME280;10959;51.328;7.322;2023-04-23T05:05:26;73651.16;;;-147.06;56.59
21594;BME280;10959;51.328;7.322;2023-04-23T05:07:53;73642.97;;;-147.06;56.59
21594;BME280;10959;51.328;7.322;2023-04-23T05:10:20;73634.78;;;-147.06;56.53
21594;BME280;10959;51.328;7.322;2023-04-23T05:12:47;73634.78;;;-147.06;56.54
21594;BME280;10959;51.328;7.322;2023-04-23T05:15:13;73626.59;;;-147.06;56.45
21594;BME280;10959;51.328;7.322;2023-04-23T05:17:40;73618.41;;;-147.06;56.36
21594;BME280;10959;51.328;7.322;2023-04-23T05:20:08;73599.97;;;-147.06;56.26
21594;BME280;10959;51.328;7.322;2023-04-23T05:22:37;73597.91;;;-147.06;56.38
21594;BME280;10959;51.328;7.322;2023-04-23T05:25:04;73597.91;;;-147.06;56.47
21594;BME280;10959;51.328;7.322;2023-04-23T05:27:31;73585.63;;;-147.06;56.31
21594;BME280;10959;51.328;7.322;2023-04-23T05:29:59;73565.13;;;-147.06;56.36
21594;BME280;10959;51.328;7.322;2023-04-23T05:32:25;73546.69;;;-147.06;56.22
21594;BME280;10959;51.328;7.322;2023-04-23T05:34:52;73534.41;;;-147.06;56.25
21594;BME280;10959;51.328;7.322;2023-04-23T05:37:19;73511.88;;;-147.06;56.18
21594;BME280;10959;51.328;7.322;2023-04-23T05:39:47;73499.59;;;-147.06;56.23
21594;BME280;10959;51.328;7.322;2023-04-23T05:42:13;73503.69;;;-147.06;56.20
21594;BME280;10959;51.328;7.322;2023-04-23T05:44:40;73507.78;;;-147.06;56.18
21594;BME280;10959;51.328;7.322;2023-04-23T05:47:07;73507.78;;;-147.06;56.15
21594;BME280;10959;51.328;7.322;2023-04-23T05:49:33;73520.06;;;-147.06;56.32
21594;BME280;10959;51.328;7.322;2023-04-23T05:52:00;73515.97;;;-147.06;56.41
21594;BME280;10959;51.328;7.322;2023-04-23T05:54:27;73530.31;;;-147.06;56.25
21594;BME280;10959;51.328;7.322;2023-04-23T05:56:55;73528.25;;;-147.06;56.25
21594;BME280;10959;51.328;7.322;2023-04-23T05:59:21;73530.31;;;-147.06;56.39
21594;BME280;10959;51.328;7.322;2023-04-23T06:01:48;73536.47;;;-147.06;56.39
21594;BME280;10959;51.328;7.322;2023-04-23T06:04:15;73515.97;;;-147.06;56.43
21594;BME280;10959;51.328;7.322;2023-04-23T06:06:42;73511.88;;;-147.06;56.49
21594;BME280;10959;51.328;7.322;2023-04-23T06:09:08;73507.78;;;-147.06;56.38
21594;BME280;10959;51.328;7.322;2023-04-23T06:11:35;73507.78;;;-147.06;56.41
21594;BME280;10959;51.328;7.322;2023-04-23T06:14:03;73499.59;;;-147.06;56.48
21594;BME280;10959;51.328;7.322;2023-04-23T06:16:29;73511.88;;;-147.06;56.71
21594;BME280;10959;51.328;7.322;2023-04-23T06:18:56;73503.69;;;-147.06;56.46
21594;BME280;10959;51.328;7.322;2023-04-23T06:21:22;73499.59;;;-147.06;56.49
21594;BME280;10959;51.328;7.322;2023-04-23T06:23:49;73491.41;;;-147.06;56.35
21594;BME280;10959;51.328;7.322;2023-04-23T06:26:16;73483.19;;;-147.06;56.55
21594;BME280;10959;51.328;7.322;2023-04-23T06:28:43;73479.09;;;-147.06;56.59
21594;BME280;10959;51.328;7.322;2023-04-23T06:31:12;73470.91;;;-147.06;56.52
21594;BME280;10959;51.328;7.322;2023-04-23T06:33:38;73462.72;;;-147.06;56.42
21594;BME280;10959;51.328;7.322;2023-04-23T06:36:06;73452.47;;;-147.06;56.43
21594;BME280;10959;51.328;7.322;2023-04-23T06:38:35;73448.38;;;-147.06;56.48
21594;BME280;10959;51.328;7.322;2023-04-23T06:41:01;73436.09;;;-147.06;56.20
21594;BME280;10959;51.328;7.322;2023-04-23T06:43:28;73419.69;;;-147.06;56.36
21594;BME280;10959;51.328;7.322;2023-04-23T06:45:54;73401.28;;;-147.06;56.25
21594;BME280;10959;51.328;7.322;2023-04-23T06:48:22;73380.78;;;-147.06;56.14
21594;BME280;10959;51.328;7.322;2023-04-23T06:50:50;73370.53;;;-147.06;55.91
21594;BME280;10959;51.328;7.322;2023-04-23T06:53:16;73372.59;;;-147.06;55.94
21594;BME280;10959;51.328;7.322;2023-04-23T06:55:43;73343.91;;;-147.06;55.77
21594;BME280;10959;51.328;7.322;2023-04-23T06:58:09;73335.72;;;-147.06;55.86
21594;BME280;10959;51.328;7.322;2023-04-23T07:00:36;73339.81;;;-147.06;55.57
21594;BME280;10959;51.328;7.322;2023-04-23T07:03:02;73327.53;;;-147.06;55.28
21594;BME280;10959;51.328;7.322;2023-04-23T07:05:30;73331.63;;;-147.06;55.29
21594;BME280;10959;51.328;7.322;2023-04-23T07:07:57;73298.84;;;-147.06;55.34
21594;BME280;10959;51.328;7.322;2023-04-23T07:10:23;73290.66;;;-147.06;55.07
21594;BME280;10959;51.328;7.322;2023-04-23T07:12:50;73278.38;;;-147.06;54.63
21594;BME280;10959;51.328;7.322;2023-04-23T07:15:16;73274.28;;;-147.06;54.74
21594;BME280;10959;51.328;7.322;2023-04-23T07:17:42;73262.00;;;-147.06;54.88
21594;BME280;10959;51.328;7.322;2023-04-23T07:20:09;73253.78;;;-147.06;54.49
21594;BME280;10959;51.328;7.322;2023-04-23T07:22:37;73264.03;;;-147.06;54.01
21594;BME280;10959;51.328;7.322;2023-04-23T07:25:04;73266.09;;;-147.06;54.06
21594;BME280;10959;51.328;7.322;2023-04-23T07:27:32;73255.84;;;-147.06;54.48
21594;BME280;10959;51.328;7.322;2023-04-23T07:29:59;73241.50;;;-147.06;54.17
21594;BME280;10959;51.328;7.322;2023-04-23T07:32:26;73221.03;;;-147.06;54.02
21594;BME280;10959;51.328;7.322;2023-04-23T07:34:53;73180.06;;;-147.06;53.65
21594;BME280;10959;51.328;7.322;2023-04-23T07:37:20;73130.91;;;-147.06;53.29
21594;BME280;10959;51.328;7.322;2023-04-23T07:39:48;73089.94;;;-147.06;52.51
21594;BME280;10959;51.328;7.322;2023-04-23T07:42:14;73063.31;;;-147.06;52.47
21594;BME280;10959;51.328;7.322;2023-04-23T07:44:41;73024.41;;;-147.06;52.42
21594;BME280;10959;51.328;7.322;2023-04-23T07:47:07;72993.69;;;-147.06;51.11
21594;BME280;10959;51.328;7.322;2023-04-23T07:49:33;72962.97;;;-147.06;50.52
21594;BME280;10959;51.328;7.322;2023-04-23T07:52:00;72926.09;;;-147.06;50.14
21594;BME280;10959;51.328;7.322;2023-04-23T07:54:26;72905.63;;;-147.06;49.63
21594;BME280;10959;51.328;7.322;2023-04-23T07:56:54;72889.25;;;-147.06;49.30
21594;BME280;10959;51.328;7.322;2023-04-23T07:59:21;72917.91;;;-147.06;48.52
21594;BME280;10959;51.328;7.322;2023-04-23T08:01:48;72897.44;;;-147.06;48.45
21594;BME280;10959;51.328;7.322;2023-04-23T08:04:14;72866.72;;;-147.06;48.72
21594;BME280;10959;51.328;7.322;2023-04-23T08:06:40;72844.19;;;-147.06;48.18
21594;BME280;10959;51.328;7.322;2023-04-23T08:09:07;72813.47;;;-147.06;48.26
21594;BME280;10959;51.328;7.322;2023-04-23T08:11:34;72838.03;;;-147.06;47.89
21594;BME280;10959;51.328;7.322;2023-04-23T08:14:02;72790.94;;;-147.06;47.70
21594;BME280;10959;51.328;7.322;2023-04-23T08:16:28;72770.47;;;-147.06;47.51
21594;BME280;10959;51.328;7.322;2023-04-23T08:18:55;72768.41;;;-147.06;47.49
21594;BME280;10959;51.328;7.322;2023-04-23T08:21:22;72809.38;;;-147.06;47.41
21594;BME280;10959;51.328;7.322;2023-04-23T08:23:49;72784.78;;;-147.06;47.56
21594;BME280;10959;51.328;7.322;2023-04-23T08:26:16;72737.69;;;-147.06;46.62
21594;BME280;10959;51.328;7.322;2023-04-23T08:28:42;72760.22;;;-147.06;46.73
21594;BME280;10959;51.328;7.322;2023-04-23T08:31:10;72788.88;;;-147.06;47.26
21594;BME280;10959;51.328;7.322;2023-04-23T08:33:37;72815.50;;;-147.06;46.98
21594;BME280;10959;51.328;7.322;2023-04-23T08:36:03;72819.59;;;-147.06;47.20
21594;BME280;10959;51.328;7.322;2023-04-23T08:38:30;72790.94;;;-147.06;46.59
21594;BME280;10959;51.328;7.322;2023-04-23T08:40:58;72803.22;;;-147.06;46.74
21594;BME280;10959;51.328;7.322;2023-04-23T08:43:30;72799.13;;;-147.06;46.73
21594;BME280;10959;51.328;7.322;2023-04-23T08:46:01;72774.56;;;-147.06;46.45
21594;BME280;10959;51.328;7.322;2023-04-23T08:48:32;72819.59;;;-147.06;46.82
21594;BME280;10959;51.328;7.322;2023-04-23T08:51:01;72819.59;;;-147.06;46.89
21594;BME280;10959;51.328;7.322;2023-04-23T08:53:28;72823.69;;;-147.06;46.84
21594;BME280;10959;51.328;7.322;2023-04-23T08:55:56;72829.84;;;-147.06;47.13
21594;BME280;10959;51.328;7.322;2023-04-23T08:58:24;72827.78;;;-147.06;46.82
21594;BME280;10959;51.328;7.322;2023-04-23T09:00:52;72821.66;;;-147.06;47.04
21594;BME280;10959;51.328;7.322;2023-04-23T09:03:19;72778.66;;;-147.06;46.79
21594;BME280;10959;51.328;7.322;2023-04-23T09:05:48;72729.50;;;-147.06;46.31
21594;BME280;10959;51.328;7.322;2023-04-23T09:08:16;72733.59;;;-147.06;46.64
21594;BME280;10959;51.328;7.322;2023-04-23T09:10:43;72733.59;;;-147.06;46.31
21594;BME280;10959;51.328;7.322;2023-04-23T09:13:11;72725.41;;;-147.06;45.85
21594;BME280;10959;51.328;7.322;2023-04-23T09:15:39;72725.41;;;-147.06;45.76
21594;BME280;10959;51.328;7.322;2023-04-23T09:18:08;72733.59;;;-147.06;45.88
21594;BME280;10959;51.328;7.322;2023-04-23T09:20:35;72729.50;;;-147.06;45.35
21594;BME280;10959;51.328;7.322;2023-04-23T09:23:06;72723.34;;;-147.06;45.63
21594;BME280;10959;51.328;7.322;2023-04-23T09:25:33;72700.81;;;-147.06;45.57
21594;BME280;10959;51.328;7.322;2023-04-23T09:28:00;72672.16;;;-147.06;45.36
21594;BME280;10959;51.328;7.322;2023-04-23T09:30:27;72639.38;;;-147.06;44.69
21594;BME280;10959;51.328;7.322;2023-04-23T09:32:53;72657.81;;;-147.06;44.59
21594;BME280;10959;51.328;7.322;2023-04-23T09:35:20;72659.88;;;-147.06;44.97
21594;BME280;10959;51.328;7.322;2023-04-23T09:37:47;72651.69;;;-147.06;45.41
21594;BME280;10959;51.328;7.322;2023-04-23T09:40:18;72639.38;;;-147.06;44.54
21594;BME280;10959;51.328;7.322;2023-04-23T09:42:47;72649.63;;;-147.06;44.31
21594;BME280;10959;51.328;7.322;2023-04-23T09:45:14;72668.06;;;-147.06;44.87
21594;BME280;10959;51.328;7.322;2023-04-23T09:47:47;72680.34;;;-147.06;44.18
21594;BME280;10959;51.328;7.322;2023-04-23T09:50:14;72680.34;;;-147.06;44.91
21594;BME280;10959;51.328;7.322;2023-04-23T09:52:43;72680.34;;;-147.06;44.90
21594;BME280;10959;51.328;7.322;2023-04-23T09:55:11;72610.72;;;-147.06;44.62
21594;BME280;10959;51.328;7.322;2023-04-23T09:57:40;72569.75;;;-147.06;43.83
21594;BME280;10959;51.328;7.322;2023-04-23T10:00:14;72598.44;;;-147.06;43.27
21594;BME280;10959;51.328;7.322;2023-04-23T10:02:45;72606.63;;;-147.06;43.63
21594;BME280;10959;51.328;7.322;2023-04-23T10:05:15;72627.09;;;-147.06;43.37
21594;BME280;10959;51.328;7.322;2023-04-23T10:07:43;72641.44;;;-147.06;43.29
21594;BME280;10959;51.328;7.322;2023-04-23T10:10:10;72614.81;;;-147.06;43.59
21594;BME280;10959;51.328;7.322;2023-04-23T10:12:38;72586.16;;;-147.06;43.94
21594;BME280;10959;51.328;7.322;2023-04-23T10:15:06;72561.56;;;-147.06;42.97
21594;BME280;10959;51.328;7.322;2023-04-23T10:17:33;72565.66;;;-147.06;42.98
21594;BME280;10959;51.328;7.322;2023-04-23T10:20:00;72577.94;;;-147.06;41.66
21594;BME280;10959;51.328;7.322;2023-04-23T10:22:29;72582.06;;;-147.06;41.86
21594;BME280;10959;51.328;7.322;2023-04-23T10:24:56;72573.84;;;-147.06;41.80
21594;BME280;10959;51.328;7.322;2023-04-23T10:27:26;72577.94;;;-147.06;41.24
21594;BME280;10959;51.328;7.322;2023-04-23T10:29:56;72569.75;;;-147.06;40.75
21594;BME280;10959;51.328;7.322;2023-04-23T10:32:23;72534.94;;;-147.06;41.84
21594;BME280;10959;51.328;7.322;2023-04-23T10:34:49;72516.53;;;-147.06;41.73
21594;BME280;10959;51.328;7.322;2023-04-23T10:37:17;72504.22;;;-147.06;41.65
21594;BME280;10959;51.328;7.322;2023-04-23T10:39:46;72496.03;;;-147.06;41.24
21594;BME280;10959;51.328;7.322;2023-04-23T10:42:15;72504.22;;;-147.06;41.23
21594;BME280;10959;51.328;7.322;2023-04-23T10:44:42;72498.09;;;-147.06;41.73
21594;BME280;10959;51.328;7.322;2023-04-23T10:47:13;72502.19;;;-147.06;41.57
21594;BME280;10959;51.328;7.322;2023-04-23T10:49:41;72504.22;;;-147.06;40.99
21594;BME280;10959;51.328;7.322;2023-04-23T10:52:09;72500.13;;;-147.06;40.87
21594;BME280;10959;51.328;7.322;2023-04-23T10:54:39;72475.56;;;-147.06;41.45
21594;BME280;10959;51.328;7.322;2023-04-23T10:57:06;72444.84;;;-147.06;41.32
21594;BME280;10959;51.328;7.322;2023-04-23T10:59:35;72418.22;;;-147.06;40.17
21594;BME280;10959;51.328;7.322;2023-04-23T11:02:09;72436.66;;;-147.06;39.72
21594;BME280;10959;51.328;7.322;2023-04-23T11:04:42;72442.78;;;-147.06;40.08
21594;BME280;10959;51.328;7.322;2023-04-23T11:07:11;72434.59;;;-147.06;40.45
21594;BME280;10959;51.328;7.322;2023-04-23T11:09:39;72442.78;;;-147.06;40.57
21594;BME280;10959;51.328;7.322;2023-04-23T11:12:09;72446.91;;;-147.06;40.82
21594;BME280;10959;51.328;7.322;2023-04-23T11:14:41;72457.13;;;-147.06;39.97
21594;BME280;10959;51.328;7.322;2023-04-23T11:17:10;72442.78;;;-147.06;40.44
21594;BME280;10959;51.328;7.322;2023-04-23T11:19:39;72457.13;;;-147.06;39.51
21594;BME280;10959;51.328;7.322;2023-04-23T11:22:12;72459.19;;;-147.06;40.37
21594;BME280;10959;51.328;7.322;2023-04-23T11:24:39;72442.78;;;-147.06;40.48
21594;BME280;10959;51.328;7.322;2023-04-23T11:27:08;72436.66;;;-147.06;40.10
21594;BME280;10959;51.328;7.322;2023-04-23T11:29:35;72430.50;;;-147.06;40.19
21594;BME280;10959;51.328;7.322;2023-04-23T11:32:02;72442.78;;;-147.06;39.57
21594;BME280;10959;51.328;7.322;2023-04-23T11:34:29;72459.19;;;-147.06;38.32
21594;BME280;10959;51.328;7.322;2023-04-23T11:36:58;72467.38;;;-147.06;38.22
21594;BME280;10959;51.328;7.322;2023-04-23T11:39:25;72463.28;;;-147.06;38.51
21594;BME280;10959;51.328;7.322;2023-04-23T11:41:52;72426.41;;;-147.06;37.93
21594;BME280;10959;51.328;7.322;2023-04-23T11:44:19;72389.56;;;-147.06;37.85
21594;BME280;10959;51.328;7.322;2023-04-23T11:46:46;72336.31;;;-147.06;37.34
21594;BME280;10959;51.328;7.322;2023-04-23T11:49:14;72328.13;;;-147.06;37.13
21594;BME280;10959;51.328;7.322;2023-04-23T11:51:41;72303.56;;;-147.06;37.59
21594;BME280;10959;51.328;7.322;2023-04-23T11:54:10;72297.41;;;-147.06;37.45
21594;BME280;10959;51.328;7.322;2023-04-23T11:56:38;72270.78;;;-147.06;38.22
21594;BME280;10959;51.328;7.322;2023-04-23T11:59:05;72307.66;;;-147.06;36.25
21594;BME280;10959;51.328;7.322;2023-04-23T12:01:42;72321.97;;;-147.06;37.13
21594;BME280;10959;51.328;7.322;2023-04-23T12:04:11;72332.22;;;-147.06;36.31
21594;BME280;10959;51.328;7.322;2023-04-23T12:06:39;72364.97;;;-147.06;35.20
21594;BME280;10959;51.328;7.322;2023-04-23T12:09:06;72385.47;;;-147.06;36.29
21594;BME280;10959;51.328;7.322;2023-04-23T12:11:36;72385.47;;;-147.06;37.00
21594;BME280;10959;51.328;7.322;2023-04-23T12:14:02;72373.19;;;-147.06;36.96
21594;BME280;10959;51.328;7.322;2023-04-23T12:16:33;72354.75;;;-147.06;37.52
21594;BME280;10959;51.328;7.322;2023-04-23T12:19:00;72328.13;;;-147.06;37.48
21594;BME280;10959;51.328;7.322;2023-04-23T12:21:26;72299.47;;;-147.06;36.76
21594;BME280;10959;51.328;7.322;2023-04-23T12:23:54;72262.59;;;-147.06;36.72
21594;BME280;10959;51.328;7.322;2023-04-23T12:26:21;72250.31;;;-147.06;36.31
21594;BME280;10959;51.328;7.322;2023-04-23T12:28:50;72254.41;;;-147.06;35.84
21594;BME280;10959;51.328;7.322;2023-04-23T12:31:18;72274.88;;;-147.06;35.44
21594;BME280;10959;51.328;7.322;2023-04-23T12:33:45;72299.47;;;-147.06;36.42
21594;BME280;10959;51.328;7.322;2023-04-23T12:36:14;72315.84;;;-147.06;35.48
21594;BME280;10959;51.328;7.322;2023-04-23T12:38:41;72324.03;;;-147.06;36.02
21594;BME280;10959;51.328;7.322;2023-04-23T12:41:08;72319.94;;;-147.06;36.39